Terminal Aerodrome Forecast
Issued by NWS Shreveport, LA

Home | Current Version | Previous Version | Text Only | Print | Product List | Glossary On
Versions: 1 2 3 4 5 6 7 8 9 10 11 12 13 14 15 16 17
000
FTUS44 KSHV 251151
TAFTXK
TAF
KTXK 251151Z 2512/2612 06004KT P6SM SCT080 BKN250
     FM251800 31008KT P6SM BKN080 OVC250
     FM252100 33010KT P6SM VCSH SCT050 BKN080 OVC250
     FM260000 33010KT 5SM -SHRA BR OVC025
     FM260300 29010KT P6SM OVC007
     FM260900 27008KT P6SM OVC015=

USA.gov is the U.S. government's official web portal to all federal, state and local government web resources and services.